createdAt,value
2018-03-21T00:00:47.778Z,83.52
2018-03-21T00:01:47.765Z,81.68
2018-03-21T00:02:47.739Z,82.63
2018-03-21T00:03:47.732Z,82.06
2018-03-21T00:04:47.705Z,83.20
2018-03-21T00:05:47.683Z,81.49
2018-03-21T00:06:47.664Z,83.10
2018-03-21T00:07:47.646Z,83.95
2018-03-21T00:08:47.631Z,83.95
2018-03-21T00:09:47.608Z,85.19
2018-03-21T00:10:47.595Z,84.23
2018-03-21T00:11:47.576Z,84.28
2018-03-21T00:12:47.549Z,82.57
2018-03-21T00:13:47.538Z,82.20
2018-03-21T00:14:47.513Z,82.95
2018-03-21T00:15:47.496Z,83.71
2018-03-21T00:16:47.485Z,82.86
2018-03-21T00:17:47.460Z,81.72
2018-03-21T00:18:47.444Z,84.09
2018-03-21T00:19:47.428Z,84.94
2018-03-21T00:20:47.399Z,82.95
2018-03-21T00:21:47.381Z,82.91
2018-03-21T00:22:47.369Z,83.71
2018-03-21T00:23:47.351Z,84.19
2018-03-21T00:24:47.325Z,83.14
2018-03-21T00:25:47.305Z,81.87
2018-03-21T00:26:47.286Z,82.91
2018-03-21T00:27:47.277Z,84.00
2018-03-21T00:28:47.252Z,83.76
2018-03-21T00:29:47.233Z,82.82
2018-03-21T00:30:47.215Z,83.86
2018-03-21T00:31:47.203Z,84.61
2018-03-21T00:32:47.175Z,83.10
2018-03-21T00:33:47.156Z,84.56
2018-03-21T00:34:47.148Z,84.28
2018-03-21T00:35:47.126Z,83.86
2018-03-21T00:36:47.099Z,83.10
2018-03-21T00:37:47.084Z,83.39
2018-03-21T00:38:47.068Z,82.91
2018-03-21T00:39:47.044Z,84.33
2018-03-21T00:40:47.035Z,84.75
2018-03-21T00:41:47.008Z,83.76
2018-03-21T00:42:47.029Z,84.19
2018-03-21T00:43:46.969Z,83.29
2018-03-21T00:44:46.949Z,83.24
2018-03-21T00:45:46.931Z,83.43
2018-03-21T00:46:46.924Z,81.87
2018-03-21T00:47:46.899Z,83.29
2018-03-21T00:48:46.875Z,83.39
2018-03-21T00:49:46.856Z,83.67
2018-03-21T00:50:46.842Z,84.23
2018-03-21T00:51:46.819Z,83.20
2018-03-21T00:52:46.805Z,83.58
2018-03-21T00:53:46.780Z,84.14
2018-03-21T00:54:46.765Z,85.13
2018-03-21T00:55:46.744Z,83.52
2018-03-21T00:56:46.724Z,83.48
2018-03-21T00:57:46.710Z,82.63
2018-03-21T00:58:46.691Z,82.63
2018-03-21T00:59:46.676Z,84.14
2018-03-21T01:00:46.648Z,83.01
2018-03-21T01:01:46.632Z,83.58
2018-03-21T01:02:46.613Z,82.82
2018-03-21T01:03:46.594Z,82.25
2018-03-21T01:04:46.575Z,82.44
2018-03-21T01:05:46.555Z,82.63
2018-03-21T01:06:46.537Z,83.48
2018-03-21T01:07:46.522Z,85.85
2018-03-21T01:08:46.507Z,84.52
2018-03-21T01:09:46.480Z,82.53
2018-03-21T01:10:46.461Z,82.25
2018-03-21T01:11:46.443Z,82.82
2018-03-21T01:12:46.423Z,84.05
2018-03-21T01:13:46.406Z,85.09
2018-03-21T01:14:46.394Z,84.71
2018-03-21T01:15:46.369Z,84.05
2018-03-21T01:16:46.350Z,83.10
2018-03-21T01:17:46.331Z,83.10
2018-03-21T01:18:46.317Z,83.76
2018-03-21T01:19:46.296Z,83.67
2018-03-21T01:20:46.273Z,83.58
2018-03-21T01:21:46.256Z,83.95
2018-03-21T01:22:46.237Z,85.85
2018-03-21T01:23:46.218Z,85.00
2018-03-21T01:24:46.203Z,85.09
2018-03-21T01:25:46.182Z,84.33
2018-03-21T01:26:46.168Z,84.23
2018-03-21T01:27:46.146Z,85.09
2018-03-21T01:28:46.125Z,85.19
2018-03-21T01:29:46.111Z,84.05
2018-03-21T01:30:46.092Z,83.95
2018-03-21T01:31:46.068Z,85.09
2018-03-21T01:32:46.049Z,84.20
2018-03-21T01:33:46.031Z,84.86
2018-03-21T01:34:46.012Z,85.24
2018-03-21T01:35:46.002Z,85.52
2018-03-21T01:36:45.978Z,85.52
2018-03-21T01:37:45.957Z,85.33
2018-03-21T01:38:45.944Z,86.56
2018-03-21T01:39:45.917Z,86.37
2018-03-21T01:40:45.904Z,85.71
2018-03-21T01:41:45.880Z,86.09
2018-03-21T01:42:45.861Z,86.28
2018-03-21T01:43:45.849Z,86.66
2018-03-21T01:44:45.822Z,86.28
2018-03-21T01:45:45.810Z,87.23
2018-03-21T01:46:45.789Z,86.85
2018-03-21T01:47:45.767Z,86.66
2018-03-21T01:48:45.747Z,87.13
2018-03-21T01:49:45.740Z,87.04
2018-03-21T01:50:45.712Z,87.79
2018-03-21T01:51:45.694Z,87.23
2018-03-21T01:52:45.671Z,87.60
2018-03-21T01:53:45.659Z,87.70
2018-03-21T01:54:45.645Z,86.94
2018-03-21T01:55:45.623Z,87.13
2018-03-21T01:56:45.596Z,87.13
2018-03-21T01:57:45.585Z,87.41
2018-03-21T01:58:45.561Z,87.27
2018-03-21T01:59:45.539Z,86.22
2018-03-21T02:00:45.520Z,85.80
2018-03-21T02:01:45.501Z,86.75
2018-03-21T02:02:45.501Z,87.13
2018-03-21T02:03:45.463Z,87.51
2018-03-21T02:04:45.450Z,87.13
2018-03-21T02:05:45.424Z,87.13
2018-03-21T02:06:45.412Z,87.41
2018-03-21T02:07:45.391Z,87.60
2018-03-21T02:08:45.378Z,87.79
2018-03-21T02:09:45.361Z,88.55
2018-03-21T02:10:45.338Z,88.55
2018-03-21T02:11:45.314Z,88.45
2018-03-21T02:12:45.293Z,89.21
2018-03-21T02:13:45.275Z,88.07
2018-03-21T02:14:45.260Z,87.32
2018-03-21T02:15:45.237Z,87.60
2018-03-21T02:16:45.216Z,88.17
2018-03-21T02:17:45.196Z,88.36
2018-03-21T02:18:45.179Z,89.02
2018-03-21T02:19:45.164Z,88.36
2018-03-21T02:20:45.142Z,88.07
2018-03-21T02:21:45.119Z,88.36
2018-03-21T02:22:45.108Z,88.45
2018-03-21T02:23:45.088Z,88.83
2018-03-21T02:24:45.061Z,89.97
2018-03-21T02:25:45.049Z,90.91
2018-03-21T02:26:45.024Z,91.20
2018-03-21T02:27:45.010Z,91.10
2018-03-21T02:28:44.985Z,89.21
2018-03-21T02:29:44.965Z,88.64
2018-03-21T02:30:44.950Z,89.50
2018-03-21T02:31:44.929Z,89.78
2018-03-21T02:32:44.917Z,88.93
2018-03-21T02:33:44.888Z,89.69
2018-03-21T02:34:44.871Z,91.81
2018-03-21T02:35:44.852Z,90.39
2018-03-21T02:36:44.831Z,89.44
2018-03-21T02:37:44.819Z,87.74
2018-03-21T02:38:44.793Z,87.04
2018-03-21T02:39:44.781Z,86.89
2018-03-21T02:40:44.760Z,87.65
2018-03-21T02:41:44.735Z,87.17
2018-03-21T02:42:44.718Z,87.27
2018-03-21T02:43:44.704Z,87.17
2018-03-21T02:44:44.681Z,87.46
2018-03-21T02:45:44.662Z,87.55
2018-03-21T02:46:44.641Z,88.17
2018-03-21T02:47:44.627Z,88.26
2018-03-21T02:48:44.606Z,87.88
2018-03-21T02:49:44.584Z,89.78
2018-03-21T02:50:44.565Z,88.93
2018-03-21T02:51:44.550Z,88.55
2018-03-21T02:52:44.525Z,88.36
2018-03-21T02:53:44.509Z,87.98
2018-03-21T02:54:44.496Z,88.55
2018-03-21T02:55:44.470Z,88.93
2018-03-21T02:56:44.463Z,89.69
2018-03-21T02:57:44.432Z,90.06
2018-03-21T02:58:44.422Z,90.16
2018-03-21T02:59:44.392Z,89.87
2018-03-21T03:00:44.379Z,90.06
2018-03-21T03:01:44.354Z,89.87
2018-03-21T03:02:44.340Z,89.69
2018-03-21T03:03:44.325Z,89.12
2018-03-21T03:04:44.299Z,89.40
2018-03-21T03:05:44.278Z,89.69
2018-03-21T03:06:44.271Z,90.06
2018-03-21T03:07:44.241Z,89.78
2018-03-21T03:08:44.226Z,90.06
2018-03-21T03:09:44.202Z,90.06
2018-03-21T03:10:44.183Z,89.78
2018-03-21T03:11:44.164Z,89.31
2018-03-21T03:12:44.155Z,89.69
2018-03-21T03:13:44.130Z,89.97
2018-03-21T03:14:44.118Z,89.78
2018-03-21T03:15:44.092Z,87.88
2018-03-21T03:16:44.074Z,87.98
2018-03-21T03:17:44.053Z,88.45
2018-03-21T03:18:44.042Z,89.87
2018-03-21T03:19:44.014Z,89.02
2018-03-21T03:20:44.001Z,89.31
2018-03-21T03:21:43.974Z,89.12
2018-03-21T03:22:43.957Z,87.98
2018-03-21T03:23:43.936Z,88.64
2018-03-21T03:24:43.919Z,88.55
2018-03-21T03:25:43.899Z,87.60
2018-03-21T03:26:43.876Z,87.70
2018-03-21T03:27:43.870Z,88.93
2018-03-21T03:28:43.841Z,89.12
2018-03-21T03:29:43.820Z,88.07
2018-03-21T03:30:43.805Z,88.93
2018-03-21T03:31:43.788Z,88.07
2018-03-21T03:32:43.768Z,87.98
2018-03-21T03:33:43.741Z,87.98
2018-03-21T03:34:43.732Z,88.07
2018-03-21T03:35:43.702Z,88.17
2018-03-21T03:36:43.684Z,88.45
2018-03-21T03:37:43.664Z,89.12
2018-03-21T03:38:43.652Z,88.93
2018-03-21T03:39:43.626Z,88.93
2018-03-21T03:40:43.613Z,88.12
2018-03-21T03:41:43.586Z,87.60
2018-03-21T03:42:43.577Z,88.45
2018-03-21T03:43:43.550Z,87.88
2018-03-21T03:44:43.535Z,88.36
2018-03-21T03:45:43.511Z,87.98
2018-03-21T03:46:43.490Z,87.98
2018-03-21T03:47:43.473Z,88.07
2018-03-21T03:48:43.453Z,88.36
2018-03-21T03:49:43.433Z,89.02
2018-03-21T03:50:43.415Z,88.36
2018-03-21T03:51:43.401Z,88.93
2018-03-21T03:52:43.376Z,89.21
2018-03-21T03:53:43.357Z,89.21
2018-03-21T03:54:43.336Z,89.21
2018-03-21T03:55:43.318Z,88.93
2018-03-21T03:56:43.295Z,88.64
2018-03-21T03:57:43.278Z,89.12
2018-03-21T03:58:43.264Z,89.31
2018-03-21T03:59:43.242Z,89.40
2018-03-21T04:00:43.225Z,89.59
2018-03-21T04:01:43.202Z,89.50
2018-03-21T04:02:43.181Z,88.93
2018-03-21T04:03:43.184Z,89.78
2018-03-21T04:04:43.146Z,89.69
2018-03-21T04:05:43.128Z,89.02
2018-03-21T04:06:43.112Z,88.45
2018-03-21T04:07:43.089Z,88.17
2018-03-21T04:08:43.073Z,88.36
2018-03-21T04:09:43.050Z,88.55
2018-03-21T04:10:43.036Z,88.93
2018-03-21T04:11:43.011Z,91.01
2018-03-21T04:12:42.989Z,89.78
2018-03-21T04:13:42.968Z,87.98
2018-03-21T04:14:42.958Z,87.70
2018-03-21T04:15:42.930Z,87.79
2018-03-21T04:16:42.911Z,89.54
2018-03-21T04:17:42.897Z,88.21
2018-03-21T04:18:42.876Z,87.08
2018-03-21T04:19:42.854Z,88.21
2018-03-21T04:20:42.834Z,87.08
2018-03-21T04:21:42.815Z,86.98
2018-03-21T04:22:42.798Z,85.09
2018-03-21T04:23:42.778Z,85.09
2018-03-21T04:24:42.758Z,85.28
2018-03-21T04:25:42.743Z,85.38
2018-03-21T04:26:42.724Z,85.66
2018-03-21T04:27:42.702Z,86.22
2018-03-21T04:28:42.688Z,86.47
2018-03-21T04:29:42.663Z,87.36
2018-03-21T04:30:42.646Z,87.17
2018-03-21T04:31:42.626Z,85.57
2018-03-21T04:32:42.608Z,84.95
2018-03-21T04:33:42.588Z,85.24
2018-03-21T04:34:42.568Z,85.99
2018-03-21T04:35:42.550Z,86.37
2018-03-21T04:36:42.530Z,86.56
2018-03-21T04:37:42.513Z,86.66
2018-03-21T04:38:42.495Z,89.06
2018-03-21T04:39:42.479Z,87.13
2018-03-21T04:40:42.454Z,85.47
2018-03-21T04:41:42.444Z,85.19
2018-03-21T04:42:42.420Z,85.57
2018-03-21T04:43:42.399Z,86.41
2018-03-21T04:44:42.379Z,86.85
2018-03-21T04:45:42.360Z,86.13
2018-03-21T04:46:42.341Z,86.22
2018-03-21T04:47:42.329Z,84.90
2018-03-21T04:48:42.307Z,86.13
2018-03-21T04:49:42.292Z,85.38
2018-03-21T04:50:42.272Z,86.60
2018-03-21T04:51:42.246Z,87.23
2018-03-21T04:52:42.234Z,85.85
2018-03-21T04:53:42.214Z,85.90
2018-03-21T04:54:42.189Z,86.41
2018-03-21T04:55:42.171Z,87.13
2018-03-21T04:56:42.150Z,87.32
2018-03-21T04:57:42.134Z,86.47
2018-03-21T04:58:42.119Z,85.80
2018-03-21T04:59:42.096Z,85.33
2018-03-21T05:00:42.073Z,86.28
2018-03-21T05:01:42.061Z,86.28
2018-03-21T05:02:42.045Z,86.94
2018-03-21T05:03:42.073Z,88.02
2018-03-21T05:04:42.063Z,87.32
2018-03-21T05:05:42.030Z,87.17
2018-03-21T05:06:41.974Z,86.89
2018-03-21T05:07:41.955Z,85.75
2018-03-21T05:08:41.926Z,86.04
2018-03-21T05:09:41.899Z,87.36
2018-03-21T05:10:41.883Z,85.85
2018-03-21T05:11:41.861Z,85.28
2018-03-21T05:12:41.842Z,85.94
2018-03-21T05:13:41.823Z,85.00
2018-03-21T05:14:41.806Z,86.32
2018-03-21T05:15:41.786Z,86.66
2018-03-21T05:16:41.765Z,87.17
2018-03-21T05:17:41.751Z,87.74
2018-03-21T05:18:41.737Z,87.93
2018-03-21T05:19:41.710Z,87.08
2018-03-21T05:20:41.686Z,86.13
2018-03-21T05:21:41.672Z,85.52
2018-03-21T05:22:41.656Z,87.17
2018-03-21T05:23:41.636Z,85.75
2018-03-21T05:24:41.610Z,85.28
2018-03-21T05:25:41.596Z,85.57
2018-03-21T05:26:41.576Z,85.19
2018-03-21T05:27:41.552Z,85.85
2018-03-21T05:28:41.550Z,85.52
2018-03-21T05:29:41.517Z,85.52
2018-03-21T05:30:41.497Z,85.52
2018-03-21T05:31:41.476Z,85.71
2018-03-21T05:32:41.456Z,86.56
2018-03-21T05:33:41.436Z,86.28
2018-03-21T05:34:41.431Z,87.41
2018-03-21T05:35:41.410Z,85.99
2018-03-21T05:36:41.380Z,86.04
2018-03-21T05:37:41.363Z,85.94
2018-03-21T05:38:41.345Z,85.52
2018-03-21T05:39:41.322Z,86.18
2018-03-21T05:40:41.304Z,85.71
2018-03-21T05:41:41.282Z,86.56
2018-03-21T05:42:41.263Z,88.49
2018-03-21T05:43:41.243Z,86.13
2018-03-21T05:44:41.223Z,85.19
2018-03-21T05:45:41.202Z,84.90
2018-03-21T05:46:41.189Z,83.48
2018-03-21T05:47:41.166Z,83.01
2018-03-21T05:48:41.145Z,82.34
2018-03-21T05:49:41.126Z,81.30
2018-03-21T05:50:41.114Z,81.30
2018-03-21T05:51:41.096Z,81.68
2018-03-21T05:52:41.068Z,81.96
2018-03-21T05:53:41.058Z,81.77
2018-03-21T05:54:41.039Z,81.87
2018-03-21T05:55:41.019Z,80.55
2018-03-21T05:56:41.001Z,79.13
2018-03-21T05:57:40.972Z,79.50
2018-03-21T05:58:40.955Z,77.89
2018-03-21T05:59:40.942Z,80.93
2018-03-21T06:00:40.920Z,78.65
2018-03-21T06:01:40.902Z,82.25
2018-03-21T06:02:40.885Z,79.60
2018-03-21T06:03:40.859Z,76.48
2018-03-21T06:04:40.838Z,75.62
2018-03-21T06:05:40.819Z,74.49
2018-03-21T06:06:40.799Z,74.40
2018-03-21T06:07:40.783Z,75.24
2018-03-21T06:08:40.761Z,75.34
2018-03-21T06:09:40.744Z,78.85
2018-03-21T06:10:40.728Z,78.46
2018-03-21T06:11:40.764Z,75.43
2018-03-21T06:12:40.682Z,74.87
2018-03-21T06:13:40.668Z,75.24
2018-03-21T06:14:40.645Z,73.45
2018-03-21T06:15:40.628Z,72.69
2018-03-21T06:16:40.607Z,72.88
2018-03-21T06:17:40.584Z,73.54
2018-03-21T06:18:40.576Z,73.16
2018-03-21T06:19:40.552Z,73.73
2018-03-21T06:20:40.528Z,72.97
2018-03-21T06:21:40.512Z,74.30
2018-03-21T06:22:40.488Z,76.19
2018-03-21T06:23:40.477Z,74.49
2018-03-21T06:24:40.448Z,72.97
2018-03-21T06:25:40.428Z,73.73
2018-03-21T06:26:40.415Z,73.03
2018-03-21T06:27:40.395Z,72.97
2018-03-21T06:28:40.371Z,75.62
2018-03-21T06:29:40.349Z,76.76
2018-03-21T06:30:40.336Z,74.77
2018-03-21T06:31:40.313Z,73.54
2018-03-21T06:32:40.295Z,73.60
2018-03-21T06:33:40.271Z,74.49
2018-03-21T06:34:40.251Z,75.62
2018-03-21T06:35:40.231Z,75.81
2018-03-21T06:36:40.211Z,73.83
2018-03-21T06:37:40.193Z,72.41
2018-03-21T06:38:40.178Z,72.60
2018-03-21T06:39:40.155Z,72.60
2018-03-21T06:40:40.141Z,72.41
2018-03-21T06:41:40.121Z,73.16
2018-03-21T06:42:40.098Z,74.11
2018-03-21T06:43:40.075Z,74.02
2018-03-21T06:44:40.079Z,72.12
2018-03-21T06:45:40.033Z,71.74
2018-03-21T06:46:40.014Z,71.46
2018-03-21T06:47:39.999Z,71.55
2018-03-21T06:48:39.975Z,71.36
2018-03-21T06:49:39.954Z,71.71
2018-03-21T06:50:39.937Z,72.28
2018-03-21T06:51:39.917Z,72.28
2018-03-21T06:52:39.896Z,72.18
2018-03-21T06:53:39.875Z,72.37
2018-03-21T06:54:39.858Z,72.47
2018-03-21T06:55:39.836Z,72.88
2018-03-21T06:56:39.816Z,71.33
2018-03-21T06:57:39.797Z,71.33
2018-03-21T06:58:39.781Z,71.71
2018-03-21T06:59:39.757Z,71.65
2018-03-21T07:00:39.738Z,72.41
2018-03-21T07:01:39.734Z,72.75
2018-03-21T07:02:39.697Z,74.02
2018-03-21T07:03:39.679Z,74.40
2018-03-21T07:04:39.661Z,74.02
2018-03-21T07:05:39.643Z,74.58
2018-03-21T07:06:39.617Z,73.73
2018-03-21T07:07:39.600Z,74.40
2018-03-21T07:08:39.577Z,75.24
2018-03-21T07:09:39.559Z,74.49
2018-03-21T07:10:39.541Z,74.87
2018-03-21T07:11:39.520Z,73.83
2018-03-21T07:12:39.498Z,74.96
2018-03-21T07:13:39.485Z,73.92
2018-03-21T07:14:39.476Z,74.02
2018-03-21T07:15:39.440Z,75.05
2018-03-21T07:16:39.428Z,76.29
2018-03-21T07:17:39.400Z,76.57
2018-03-21T07:18:39.384Z,75.81
2018-03-21T07:19:39.364Z,76.38
2018-03-21T07:20:39.340Z,75.15
2018-03-21T07:21:39.321Z,74.11
2018-03-21T07:22:39.303Z,73.45
2018-03-21T07:23:39.282Z,73.92
2018-03-21T07:24:39.264Z,73.64
2018-03-21T07:25:39.248Z,73.16
2018-03-21T07:26:39.229Z,74.96
2018-03-21T07:27:39.204Z,74.87
2018-03-21T07:28:39.183Z,74.96
2018-03-21T07:29:39.173Z,74.49
2018-03-21T07:30:39.151Z,74.21
2018-03-21T07:31:39.128Z,74.11
2018-03-21T07:32:39.116Z,73.83
2018-03-21T07:33:39.093Z,75.34
2018-03-21T07:34:39.068Z,73.11
2018-03-21T07:35:39.060Z,72.82
2018-03-21T07:36:39.028Z,73.68
2018-03-21T07:37:39.010Z,73.96
2018-03-21T07:38:38.989Z,73.49
2018-03-21T07:39:38.973Z,74.05
2018-03-21T07:40:38.959Z,72.63
2018-03-21T07:41:38.937Z,72.73
2018-03-21T07:42:38.914Z,73.05
2018-03-21T07:43:38.903Z,70.30
2018-03-21T07:44:38.877Z,69.17
2018-03-21T07:45:38.863Z,67.99
2018-03-21T07:46:38.845Z,68.69
2018-03-21T07:47:38.825Z,71.44
2018-03-21T07:48:38.803Z,69.22
2018-03-21T07:49:38.781Z,68.94
2018-03-21T07:50:38.766Z,69.89
2018-03-21T07:51:38.746Z,71.72
2018-03-21T07:52:38.729Z,70.97
2018-03-21T07:53:38.705Z,71.62
2018-03-21T07:54:38.695Z,69.64
2018-03-21T07:55:38.671Z,69.73
2018-03-21T07:56:38.695Z,68.79
2018-03-21T07:57:38.635Z,70.78
2018-03-21T07:58:38.616Z,69.73
2018-03-21T07:59:38.597Z,70.39
2018-03-21T08:00:38.577Z,68.02
2018-03-21T08:01:38.559Z,67.83
2018-03-21T08:02:38.541Z,68.02
2018-03-21T08:03:38.522Z,70.30
2018-03-21T08:04:38.504Z,69.54
2018-03-21T08:05:38.488Z,69.45
2018-03-21T08:06:38.468Z,67.46
2018-03-21T08:07:38.450Z,71.15
2018-03-21T08:08:38.432Z,70.11
2018-03-21T08:09:38.415Z,70.20
2018-03-21T08:10:38.401Z,67.46
2018-03-21T08:11:38.381Z,68.02
2018-03-21T08:12:38.363Z,67.46
2018-03-21T08:13:38.341Z,68.50
2018-03-21T08:14:38.330Z,71.06
2018-03-21T08:15:38.316Z,68.12
2018-03-21T08:16:38.287Z,66.86
2018-03-21T08:17:38.276Z,68.79
2018-03-21T08:18:38.252Z,71.34
2018-03-21T08:19:38.237Z,70.39
2018-03-21T08:20:38.215Z,68.79
2018-03-21T08:21:38.206Z,65.75
2018-03-21T08:22:38.180Z,68.02
2018-03-21T08:23:38.163Z,65.19
2018-03-21T08:24:38.149Z,64.14
2018-03-21T08:25:38.127Z,63.67
2018-03-21T08:26:38.109Z,63.20
2018-03-21T08:27:38.101Z,64.14
2018-03-21T08:28:38.073Z,62.91
2018-03-21T08:29:38.059Z,60.70
2018-03-21T08:30:38.036Z,61.40
2018-03-21T08:31:38.022Z,60.61
2018-03-21T08:32:37.998Z,60.61
2018-03-21T08:33:37.981Z,58.43
2018-03-21T08:34:37.965Z,56.72
2018-03-21T08:35:37.946Z,56.91
2018-03-21T08:36:37.926Z,56.34
2018-03-21T08:37:37.911Z,56.15
2018-03-21T08:38:37.890Z,56.06
2018-03-21T08:39:37.874Z,56.06
2018-03-21T08:40:37.853Z,56.44
2018-03-21T08:41:37.834Z,56.82
2018-03-21T08:42:37.827Z,57.29
2018-03-21T08:43:37.800Z,58.14
2018-03-21T08:44:37.779Z,57.86
2018-03-21T08:45:37.765Z,57.29
2018-03-21T08:46:37.751Z,56.53
2018-03-21T08:47:37.725Z,57.39
2018-03-21T08:48:37.705Z,56.15
2018-03-21T08:49:37.715Z,56.06
2018-03-21T08:50:37.677Z,56.44
2018-03-21T08:51:37.650Z,57.10
2018-03-21T08:52:37.636Z,56.25
2018-03-21T08:53:37.612Z,55.30
2018-03-21T08:54:37.594Z,55.40
2018-03-21T08:55:37.639Z,55.77
2018-03-21T08:56:37.557Z,55.11
2018-03-21T08:57:37.537Z,54.64
2018-03-21T08:58:37.519Z,55.21
2018-03-21T08:59:37.509Z,55.30
2018-03-21T09:00:37.485Z,55.02
2018-03-21T09:01:37.465Z,55.11
2018-03-21T09:02:37.452Z,56.15
2018-03-21T09:03:37.443Z,55.77
2018-03-21T09:04:37.416Z,55.68
2018-03-21T09:05:37.399Z,54.64
2018-03-21T09:06:37.373Z,54.64
2018-03-21T09:07:37.357Z,55.02
2018-03-21T09:08:37.332Z,55.49
2018-03-21T09:09:37.321Z,56.53
2018-03-21T09:10:37.298Z,56.82
2018-03-21T09:11:37.285Z,56.94
2018-03-21T09:12:37.264Z,55.62
2018-03-21T09:13:37.245Z,55.33
2018-03-21T09:14:37.220Z,56.09
2018-03-21T09:15:37.206Z,54.76
2018-03-21T09:16:37.189Z,54.19
2018-03-21T09:17:37.164Z,53.63
2018-03-21T09:18:37.151Z,54.00
2018-03-21T09:19:37.128Z,53.44
2018-03-21T09:20:37.145Z,52.96
2018-03-21T09:21:37.089Z,53.25
2018-03-21T09:22:37.074Z,53.25
2018-03-21T09:23:37.061Z,52.96
2018-03-21T09:24:37.039Z,53.25
2018-03-21T09:25:37.020Z,54.00
2018-03-21T09:26:36.999Z,53.81
2018-03-21T09:27:36.981Z,52.84
2018-03-21T09:28:36.966Z,52.27
2018-03-21T09:29:36.943Z,52.96
2018-03-21T09:30:36.926Z,53.25
2018-03-21T09:31:36.909Z,53.15
2018-03-21T09:32:36.892Z,53.22
2018-03-21T09:33:36.875Z,53.15
2018-03-21T09:34:36.850Z,53.34
2018-03-21T09:35:36.832Z,53.53
2018-03-21T09:36:36.818Z,53.72
2018-03-21T09:37:36.799Z,53.91
2018-03-21T09:38:36.777Z,53.72
2018-03-21T09:39:36.765Z,53.44
2018-03-21T09:40:36.745Z,53.63
2018-03-21T09:41:36.725Z,53.06
2018-03-21T09:42:36.702Z,52.20
2018-03-21T09:43:36.685Z,52.01
2018-03-21T09:44:36.666Z,52.11
2018-03-21T09:45:36.647Z,52.29
2018-03-21T09:46:36.627Z,52.20
2018-03-21T09:47:36.611Z,53.06
2018-03-21T09:48:36.630Z,52.29
2018-03-21T09:49:36.582Z,51.92
2018-03-21T09:50:36.558Z,51.54
2018-03-21T09:51:36.536Z,51.57
2018-03-21T09:52:36.523Z,50.69
2018-03-21T09:53:36.501Z,50.90
2018-03-21T09:54:36.488Z,50.97
2018-03-21T09:55:36.466Z,50.69
2018-03-21T09:56:36.449Z,51.09
2018-03-21T09:57:36.430Z,51.76
2018-03-21T09:58:36.412Z,50.90
2018-03-21T09:59:36.394Z,51.09
2018-03-21T10:00:36.377Z,50.81
2018-03-21T10:01:36.367Z,50.71
2018-03-21T10:02:36.339Z,50.71
2018-03-21T10:03:36.321Z,50.52
2018-03-21T10:04:36.302Z,49.95
2018-03-21T10:05:36.290Z,50.99
2018-03-21T10:06:36.282Z,50.90
2018-03-21T10:07:36.251Z,49.86
2018-03-21T10:08:36.233Z,49.19
2018-03-21T10:09:36.219Z,49.67
2018-03-21T10:10:36.197Z,50.81
2018-03-21T10:11:36.230Z,50.05
2018-03-21T10:12:36.160Z,49.86
2018-03-21T10:13:36.144Z,50.43
2018-03-21T10:14:36.129Z,50.43
2018-03-21T10:15:36.110Z,50.24
2018-03-21T10:16:36.089Z,49.29
2018-03-21T10:17:36.072Z,48.63
2018-03-21T10:18:36.054Z,48.15
2018-03-21T10:19:36.039Z,48.15
2018-03-21T10:20:36.023Z,48.34
2018-03-21T10:21:36.002Z,49.29
2018-03-21T10:22:35.994Z,49.95
2018-03-21T10:23:35.973Z,48.72
2018-03-21T10:24:35.957Z,48.25
2018-03-21T10:25:35.931Z,47.68
2018-03-21T10:26:35.921Z,47.39
2018-03-21T10:27:35.898Z,47.58
2018-03-21T10:28:35.877Z,48.25
2018-03-21T10:29:35.864Z,47.58
2018-03-21T10:30:35.842Z,47.52
2018-03-21T10:31:35.829Z,47.49
2018-03-21T10:32:35.809Z,47.42
2018-03-21T10:33:35.797Z,46.56
2018-03-21T10:34:35.817Z,46.35
2018-03-21T10:35:35.758Z,46.07
2018-03-21T10:36:35.742Z,46.26
2018-03-21T10:37:35.724Z,46.07
2018-03-21T10:38:35.707Z,45.81
2018-03-21T10:39:35.694Z,45.62
2018-03-21T10:40:35.671Z,45.88
2018-03-21T10:41:35.655Z,45.62
2018-03-21T10:42:35.651Z,45.33
2018-03-21T10:43:35.618Z,45.62
2018-03-21T10:44:35.601Z,45.52
2018-03-21T10:45:35.584Z,45.81
2018-03-21T10:46:35.571Z,46.09
2018-03-21T10:47:35.549Z,44.29
2018-03-21T10:48:35.531Z,44.20
2018-03-21T10:49:35.521Z,44.20
2018-03-21T10:50:35.498Z,44.01
2018-03-21T10:51:35.487Z,44.95
2018-03-21T10:52:38.914Z,44.76
2018-03-21T10:53:35.447Z,44.48
2018-03-21T10:54:35.482Z,44.85
2018-03-21T10:55:35.418Z,44.48
2018-03-21T10:56:35.397Z,43.62
2018-03-21T10:57:35.381Z,43.53
2018-03-21T10:58:35.362Z,43.82
2018-03-21T10:59:35.353Z,44.40
2018-03-21T11:00:35.330Z,44.79
2018-03-21T11:01:35.313Z,45.45
2018-03-21T11:02:35.296Z,44.69
2018-03-21T11:03:35.287Z,43.74
2018-03-21T11:04:35.263Z,44.21
2018-03-21T11:05:35.253Z,44.69
2018-03-21T11:06:35.234Z,44.21
2018-03-21T11:07:35.246Z,43.36
2018-03-21T11:08:35.197Z,42.79
2018-03-21T11:09:35.182Z,41.75
2018-03-21T11:10:35.166Z,41.56
2018-03-21T11:11:35.165Z,41.46
2018-03-21T11:12:35.134Z,42.03
2018-03-21T11:13:35.120Z,42.03
2018-03-21T11:14:35.099Z,41.85
2018-03-21T11:15:35.086Z,42.22
2018-03-21T11:16:35.069Z,42.32
2018-03-21T11:17:35.057Z,41.73
2018-03-21T11:18:35.036Z,41.25
2018-03-21T11:19:35.019Z,41.27
2018-03-21T11:20:35.002Z,41.44
2018-03-21T11:21:34.986Z,40.14
2018-03-21T11:22:34.969Z,40.23
2018-03-21T11:23:34.954Z,40.97
2018-03-21T11:24:34.937Z,40.59
2018-03-21T11:25:34.921Z,40.50
2018-03-21T11:26:34.907Z,41.06
2018-03-21T11:27:34.918Z,40.89
2018-03-21T11:28:34.906Z,41.37
2018-03-21T11:29:34.897Z,41.46
2018-03-21T11:30:34.889Z,41.56
2018-03-21T11:31:34.881Z,42.03
2018-03-21T11:32:34.873Z,42.13
2018-03-21T11:33:34.861Z,41.46
2018-03-21T11:34:34.851Z,40.80
2018-03-21T11:35:34.844Z,40.61
2018-03-21T11:36:34.833Z,41.08
2018-03-21T11:37:34.817Z,40.89
2018-03-21T11:38:34.808Z,41.75
2018-03-21T11:39:34.781Z,41.96
2018-03-21T11:40:34.777Z,40.72
2018-03-21T11:41:34.754Z,41.58
2018-03-21T11:42:34.745Z,42.72
2018-03-21T11:43:34.632Z,41.39
2018-03-21T11:44:34.617Z,41.01
2018-03-21T11:45:34.600Z,40.70
2018-03-21T11:46:34.589Z,40.04
2018-03-21T11:47:34.571Z,40.23
2018-03-21T11:48:34.552Z,40.34
2018-03-21T11:49:34.544Z,41.30
2018-03-21T11:50:34.529Z,40.53
2018-03-21T11:51:34.505Z,40.06
2018-03-21T11:52:34.488Z,38.92
2018-03-21T11:53:34.480Z,38.26
2018-03-21T11:54:34.457Z,38.82
2018-03-21T11:55:34.447Z,38.26
2018-03-21T11:56:34.429Z,37.40
2018-03-21T11:57:34.410Z,36.74
2018-03-21T11:58:34.394Z,38.07
2018-03-21T11:59:34.385Z,39.68
2018-03-21T12:00:34.363Z,38.35
2018-03-21T12:01:34.351Z,38.35
2018-03-21T12:02:34.332Z,38.82
2018-03-21T12:03:34.316Z,38.82
2018-03-21T12:04:34.309Z,39.11
2018-03-21T12:05:34.286Z,39.37
2018-03-21T12:06:34.271Z,38.82
2018-03-21T12:07:34.254Z,39.78
2018-03-21T12:08:34.313Z,39.18
2018-03-21T12:09:34.222Z,39.00
2018-03-21T12:10:34.220Z,40.14
2018-03-21T12:11:34.195Z,41.46
2018-03-21T12:12:34.184Z,41.66
2018-03-21T12:13:34.164Z,42.51
2018-03-21T12:14:34.148Z,40.23
2018-03-21T12:15:34.131Z,38.53
2018-03-21T12:16:34.116Z,38.33
2018-03-21T12:17:34.102Z,36.63
2018-03-21T12:18:34.092Z,36.72
2018-03-21T12:19:34.076Z,36.63
2018-03-21T12:20:34.053Z,36.82
2018-03-21T12:21:34.044Z,37.57
2018-03-21T12:22:34.025Z,37.76
2018-03-21T12:23:34.008Z,37.38
2018-03-21T12:24:33.990Z,38.33
2018-03-21T12:25:33.974Z,38.53
2018-03-21T12:26:33.961Z,37.57
2018-03-21T12:27:33.949Z,39.36
2018-03-21T12:28:33.932Z,39.36
2018-03-21T12:29:33.912Z,38.50
2018-03-21T12:30:33.895Z,38.71
2018-03-21T12:31:33.888Z,42.41
2018-03-21T12:32:33.868Z,40.80
2018-03-21T12:33:33.852Z,39.01
2018-03-21T12:34:33.831Z,37.76
2018-03-21T12:35:33.815Z,36.83
2018-03-21T12:36:33.798Z,36.53
2018-03-21T12:37:33.782Z,36.82
2018-03-21T12:38:33.766Z,37.95
2018-03-21T12:39:33.750Z,38.24
2018-03-21T12:40:33.756Z,37.95
2018-03-21T12:41:33.717Z,38.62
2018-03-21T12:42:33.703Z,38.33
2018-03-21T12:43:33.690Z,39.18
2018-03-21T12:44:33.696Z,38.24
2018-03-21T12:45:33.655Z,38.53
2018-03-21T12:46:33.643Z,38.35
2018-03-21T12:47:33.623Z,39.30
2018-03-21T12:48:33.607Z,40.53
2018-03-21T12:49:33.596Z,44.62
2018-03-21T12:50:33.575Z,43.48
2018-03-21T12:51:33.560Z,45.28
2018-03-21T12:52:33.542Z,43.57